sensor_id;sensor_type;location;lat;lon;timestamp;P1;durP1;ratioP1;P2;durP2;ratioP2
28431;SDS011;15664;51.302;7.744;2022-12-07T00:01:36;52.42;;;16.08;;
28431;SDS011;15664;51.302;7.744;2022-12-07T00:04:04;45.13;;;14.50;;
28431;SDS011;15664;51.302;7.744;2022-12-07T00:06:37;43.25;;;11.90;;
28431;SDS011;15664;51.302;7.744;2022-12-07T00:09:05;54.58;;;16.30;;
28431;SDS011;15664;51.302;7.744;2022-12-07T00:11:32;40.13;;;13.18;;
28431;SDS011;15664;51.302;7.744;2022-12-07T00:14:02;44.13;;;14.02;;
28431;SDS011;15664;51.302;7.744;2022-12-07T00:16:30;46.77;;;14.10;;
28431;SDS011;15664;51.302;7.744;2022-12-07T00:18:57;47.03;;;13.85;;
28431;SDS011;15664;51.302;7.744;2022-12-07T00:21:23;51.88;;;16.25;;
28431;SDS011;15664;51.302;7.744;2022-12-07T00:23:51;48.33;;;15.25;;
28431;SDS011;15664;51.302;7.744;2022-12-07T00:26:24;43.03;;;12.20;;
28431;SDS011;15664;51.302;7.744;2022-12-07T00:29:02;51.77;;;14.90;;
28431;SDS011;15664;51.302;7.744;2022-12-07T00:31:35;49.88;;;15.07;;
28431;SDS011;15664;51.302;7.744;2022-12-07T00:34:04;53.10;;;16.27;;
28431;SDS011;15664;51.302;7.744;2022-12-07T00:36:30;46.75;;;13.13;;
28431;SDS011;15664;51.302;7.744;2022-12-07T00:38:56;49.13;;;15.03;;
28431;SDS011;15664;51.302;7.744;2022-12-07T00:41:23;42.10;;;12.90;;
28431;SDS011;15664;51.302;7.744;2022-12-07T00:43:50;47.93;;;14.17;;
28431;SDS011;15664;51.302;7.744;2022-12-07T00:46:16;44.67;;;15.02;;
28431;SDS011;15664;51.302;7.744;2022-12-07T00:48:42;43.57;;;13.00;;
28431;SDS011;15664;51.302;7.744;2022-12-07T00:51:09;53.40;;;16.48;;
28431;SDS011;15664;51.302;7.744;2022-12-07T00:53:36;37.60;;;12.07;;
28431;SDS011;15664;51.302;7.744;2022-12-07T00:56:06;46.13;;;14.23;;
28431;SDS011;15664;51.302;7.744;2022-12-07T00:58:33;39.47;;;12.98;;
28431;SDS011;15664;51.302;7.744;2022-12-07T01:01:02;41.70;;;13.03;;
28431;SDS011;15664;51.302;7.744;2022-12-07T01:03:29;43.90;;;13.32;;
28431;SDS011;15664;51.302;7.744;2022-12-07T01:05:55;39.90;;;13.02;;
28431;SDS011;15664;51.302;7.744;2022-12-07T01:08:21;51.13;;;14.93;;
28431;SDS011;15664;51.302;7.744;2022-12-07T01:10:48;23.88;;;9.30;;
28431;SDS011;15664;51.302;7.744;2022-12-07T01:13:14;48.35;;;14.40;;
28431;SDS011;15664;51.302;7.744;2022-12-07T01:15:41;47.97;;;15.15;;
28431;SDS011;15664;51.302;7.744;2022-12-07T01:18:07;47.33;;;14.68;;
28431;SDS011;15664;51.302;7.744;2022-12-07T01:20:33;53.27;;;15.17;;
28431;SDS011;15664;51.302;7.744;2022-12-07T01:22:58;38.20;;;12.27;;
28431;SDS011;15664;51.302;7.744;2022-12-07T01:25:24;52.43;;;15.33;;
28431;SDS011;15664;51.302;7.744;2022-12-07T01:27:49;50.37;;;14.77;;
28431;SDS011;15664;51.302;7.744;2022-12-07T01:30:14;50.87;;;14.83;;
28431;SDS011;15664;51.302;7.744;2022-12-07T01:32:40;46.83;;;14.00;;
28431;SDS011;15664;51.302;7.744;2022-12-07T01:35:05;65.07;;;17.97;;
28431;SDS011;15664;51.302;7.744;2022-12-07T01:37:34;59.70;;;17.90;;
28431;SDS011;15664;51.302;7.744;2022-12-07T01:40:01;48.53;;;14.40;;
28431;SDS011;15664;51.302;7.744;2022-12-07T01:42:28;69.95;;;20.35;;
28431;SDS011;15664;51.302;7.744;2022-12-07T01:48:01;52.70;;;14.77;;
28431;SDS011;15664;51.302;7.744;2022-12-07T01:50:27;57.67;;;16.57;;
28431;SDS011;15664;51.302;7.744;2022-12-07T01:52:56;60.50;;;17.05;;
28431;SDS011;15664;51.302;7.744;2022-12-07T01:55:24;60.95;;;17.15;;
28431;SDS011;15664;51.302;7.744;2022-12-07T01:57:51;52.87;;;16.77;;
28431;SDS011;15664;51.302;7.744;2022-12-07T02:00:18;55.90;;;16.02;;
28431;SDS011;15664;51.302;7.744;2022-12-07T02:05:26;52.60;;;16.08;;
28431;SDS011;15664;51.302;7.744;2022-12-07T02:07:53;51.90;;;16.33;;
28431;SDS011;15664;51.302;7.744;2022-12-07T02:10:22;60.00;;;15.27;;
28431;SDS011;15664;51.302;7.744;2022-12-07T02:12:57;62.05;;;17.05;;
28431;SDS011;15664;51.302;7.744;2022-12-07T02:15:30;65.97;;;16.88;;
28431;SDS011;15664;51.302;7.744;2022-12-07T02:18:20;63.70;;;16.67;;
28431;SDS011;15664;51.302;7.744;2022-12-07T02:21:09;59.40;;;16.27;;
28431;SDS011;15664;51.302;7.744;2022-12-07T02:32:25;41.88;;;12.15;;
28431;SDS011;15664;51.302;7.744;2022-12-07T02:35:02;39.77;;;11.30;;
28431;SDS011;15664;51.302;7.744;2022-12-07T02:37:42;42.30;;;11.38;;
28431;SDS011;15664;51.302;7.744;2022-12-07T02:40:29;48.67;;;13.93;;
28431;SDS011;15664;51.302;7.744;2022-12-07T02:43:17;55.60;;;16.20;;
28431;SDS011;15664;51.302;7.744;2022-12-07T02:45:48;33.88;;;11.27;;
28431;SDS011;15664;51.302;7.744;2022-12-07T02:48:16;57.43;;;15.00;;
28431;SDS011;15664;51.302;7.744;2022-12-07T02:50:44;37.70;;;10.95;;
28431;SDS011;15664;51.302;7.744;2022-12-07T02:56:18;64.78;;;18.17;;
28431;SDS011;15664;51.302;7.744;2022-12-07T03:04:40;54.28;;;14.63;;
28431;SDS011;15664;51.302;7.744;2022-12-07T03:15:45;60.90;;;16.97;;
28431;SDS011;15664;51.302;7.744;2022-12-07T03:18:16;43.60;;;13.27;;
28431;SDS011;15664;51.302;7.744;2022-12-07T03:20:45;34.45;;;11.93;;
28431;SDS011;15664;51.302;7.744;2022-12-07T03:23:13;32.65;;;9.98;;
28431;SDS011;15664;51.302;7.744;2022-12-07T03:25:42;46.42;;;14.32;;
28431;SDS011;15664;51.302;7.744;2022-12-07T03:28:16;49.50;;;15.40;;
28431;SDS011;15664;51.302;7.744;2022-12-07T03:30:46;39.53;;;12.75;;
28431;SDS011;15664;51.302;7.744;2022-12-07T03:34:04;46.90;;;13.63;;
28431;SDS011;15664;51.302;7.744;2022-12-07T03:36:23;65.47;;;18.00;;
28431;SDS011;15664;51.302;7.744;2022-12-07T03:41:36;41.90;;;13.03;;
28431;SDS011;15664;51.302;7.744;2022-12-07T03:44:03;40.55;;;11.68;;
28431;SDS011;15664;51.302;7.744;2022-12-07T03:46:42;45.88;;;13.73;;
28431;SDS011;15664;51.302;7.744;2022-12-07T03:49:19;46.35;;;14.95;;
28431;SDS011;15664;51.302;7.744;2022-12-07T03:51:51;40.97;;;12.07;;
28431;SDS011;15664;51.302;7.744;2022-12-07T03:56:59;47.13;;;15.57;;
28431;SDS011;15664;51.302;7.744;2022-12-07T03:59:27;56.60;;;16.20;;
28431;SDS011;15664;51.302;7.744;2022-12-07T04:01:55;57.60;;;15.52;;
28431;SDS011;15664;51.302;7.744;2022-12-07T04:04:23;44.03;;;12.60;;
28431;SDS011;15664;51.302;7.744;2022-12-07T04:06:49;33.73;;;10.40;;
28431;SDS011;15664;51.302;7.744;2022-12-07T04:09:15;47.97;;;14.95;;
28431;SDS011;15664;51.302;7.744;2022-12-07T04:11:41;50.60;;;13.35;;
28431;SDS011;15664;51.302;7.744;2022-12-07T04:14:06;51.70;;;13.60;;
28431;SDS011;15664;51.302;7.744;2022-12-07T04:16:47;22.00;;;8.20;;
28431;SDS011;15664;51.302;7.744;2022-12-07T04:19:18;42.70;;;12.85;;
28431;SDS011;15664;51.302;7.744;2022-12-07T04:21:45;41.33;;;13.83;;
28431;SDS011;15664;51.302;7.744;2022-12-07T04:24:11;49.20;;;14.02;;
28431;SDS011;15664;51.302;7.744;2022-12-07T04:26:38;48.75;;;15.00;;
28431;SDS011;15664;51.302;7.744;2022-12-07T04:29:03;31.13;;;10.67;;
28431;SDS011;15664;51.302;7.744;2022-12-07T04:31:28;44.03;;;13.87;;
28431;SDS011;15664;51.302;7.744;2022-12-07T04:33:53;45.43;;;15.07;;
28431;SDS011;15664;51.302;7.744;2022-12-07T04:36:19;34.47;;;9.90;;
28431;SDS011;15664;51.302;7.744;2022-12-07T04:38:45;39.47;;;12.63;;
28431;SDS011;15664;51.302;7.744;2022-12-07T04:41:11;46.00;;;13.05;;
28431;SDS011;15664;51.302;7.744;2022-12-07T04:43:37;50.17;;;13.60;;
28431;SDS011;15664;51.302;7.744;2022-12-07T04:46:02;43.67;;;15.10;;
28431;SDS011;15664;51.302;7.744;2022-12-07T04:48:28;27.45;;;10.05;;
28431;SDS011;15664;51.302;7.744;2022-12-07T04:50:53;58.28;;;18.00;;
28431;SDS011;15664;51.302;7.744;2022-12-07T04:53:18;48.23;;;13.67;;
28431;SDS011;15664;51.302;7.744;2022-12-07T04:55:45;36.37;;;12.07;;
28431;SDS011;15664;51.302;7.744;2022-12-07T04:58:10;47.00;;;13.60;;
28431;SDS011;15664;51.302;7.744;2022-12-07T05:00:36;37.33;;;11.68;;
28431;SDS011;15664;51.302;7.744;2022-12-07T05:03:01;47.75;;;15.00;;
28431;SDS011;15664;51.302;7.744;2022-12-07T05:05:27;38.60;;;12.03;;
28431;SDS011;15664;51.302;7.744;2022-12-07T05:07:53;42.40;;;13.00;;
28431;SDS011;15664;51.302;7.744;2022-12-07T05:10:18;43.45;;;13.73;;
28431;SDS011;15664;51.302;7.744;2022-12-07T05:12:43;47.10;;;13.87;;
28431;SDS011;15664;51.302;7.744;2022-12-07T05:15:10;47.33;;;12.73;;
28431;SDS011;15664;51.302;7.744;2022-12-07T05:17:36;42.38;;;14.30;;
28431;SDS011;15664;51.302;7.744;2022-12-07T05:20:01;54.47;;;15.60;;
28431;SDS011;15664;51.302;7.744;2022-12-07T05:22:27;50.13;;;14.43;;
28431;SDS011;15664;51.302;7.744;2022-12-07T05:24:56;56.27;;;17.07;;
28431;SDS011;15664;51.302;7.744;2022-12-07T05:27:21;42.80;;;12.45;;
28431;SDS011;15664;51.302;7.744;2022-12-07T05:29:47;46.47;;;15.40;;
28431;SDS011;15664;51.302;7.744;2022-12-07T05:32:14;49.17;;;14.95;;
28431;SDS011;15664;51.302;7.744;2022-12-07T05:34:39;37.80;;;12.07;;
28431;SDS011;15664;51.302;7.744;2022-12-07T05:37:04;46.80;;;13.43;;
28431;SDS011;15664;51.302;7.744;2022-12-07T05:39:30;25.30;;;9.73;;
28431;SDS011;15664;51.302;7.744;2022-12-07T05:41:55;45.40;;;13.80;;
28431;SDS011;15664;51.302;7.744;2022-12-07T05:44:39;38.67;;;12.20;;
28431;SDS011;15664;51.302;7.744;2022-12-07T05:47:06;31.90;;;10.05;;
28431;SDS011;15664;51.302;7.744;2022-12-07T05:49:31;54.47;;;13.43;;
28431;SDS011;15664;51.302;7.744;2022-12-07T05:51:56;43.65;;;12.77;;
28431;SDS011;15664;51.302;7.744;2022-12-07T05:54:22;37.27;;;12.00;;
28431;SDS011;15664;51.302;7.744;2022-12-07T05:56:47;25.07;;;10.30;;
28431;SDS011;15664;51.302;7.744;2022-12-07T05:59:12;25.37;;;9.77;;
28431;SDS011;15664;51.302;7.744;2022-12-07T06:01:47;34.70;;;9.88;;
28431;SDS011;15664;51.302;7.744;2022-12-07T06:04:13;34.35;;;11.07;;
28431;SDS011;15664;51.302;7.744;2022-12-07T06:06:38;36.10;;;10.87;;
28431;SDS011;15664;51.302;7.744;2022-12-07T06:09:04;40.20;;;13.10;;
28431;SDS011;15664;51.302;7.744;2022-12-07T06:11:29;34.70;;;12.10;;
28431;SDS011;15664;51.302;7.744;2022-12-07T06:14:13;35.78;;;12.07;;
28431;SDS011;15664;51.302;7.744;2022-12-07T06:16:39;35.20;;;11.67;;
28431;SDS011;15664;51.302;7.744;2022-12-07T06:19:04;44.87;;;13.97;;
28431;SDS011;15664;51.302;7.744;2022-12-07T06:21:29;49.93;;;13.93;;
28431;SDS011;15664;51.302;7.744;2022-12-07T06:23:55;43.03;;;14.80;;
28431;SDS011;15664;51.302;7.744;2022-12-07T06:26:20;43.60;;;13.83;;
28431;SDS011;15664;51.302;7.744;2022-12-07T06:28:46;23.98;;;9.00;;
28431;SDS011;15664;51.302;7.744;2022-12-07T06:31:11;35.47;;;10.83;;
28431;SDS011;15664;51.302;7.744;2022-12-07T06:33:36;37.30;;;12.23;;
28431;SDS011;15664;51.302;7.744;2022-12-07T06:36:02;38.93;;;11.63;;
28431;SDS011;15664;51.302;7.744;2022-12-07T06:38:27;38.53;;;11.77;;
28431;SDS011;15664;51.302;7.744;2022-12-07T06:40:52;33.37;;;10.27;;
28431;SDS011;15664;51.302;7.744;2022-12-07T06:43:18;32.70;;;9.80;;
28431;SDS011;15664;51.302;7.744;2022-12-07T06:45:43;30.00;;;9.57;;
28431;SDS011;15664;51.302;7.744;2022-12-07T06:48:08;20.27;;;7.83;;
28431;SDS011;15664;51.302;7.744;2022-12-07T06:50:34;36.83;;;10.87;;
28431;SDS011;15664;51.302;7.744;2022-12-07T06:52:59;42.60;;;12.43;;
28431;SDS011;15664;51.302;7.744;2022-12-07T06:55:24;36.00;;;11.05;;
28431;SDS011;15664;51.302;7.744;2022-12-07T06:57:50;37.03;;;11.97;;
28431;SDS011;15664;51.302;7.744;2022-12-07T07:00:15;42.43;;;13.50;;
28431;SDS011;15664;51.302;7.744;2022-12-07T07:02:41;24.87;;;9.00;;
28431;SDS011;15664;51.302;7.744;2022-12-07T07:05:06;37.40;;;11.50;;
28431;SDS011;15664;51.302;7.744;2022-12-07T07:07:32;31.35;;;9.98;;
28431;SDS011;15664;51.302;7.744;2022-12-07T07:09:57;36.20;;;11.37;;
28431;SDS011;15664;51.302;7.744;2022-12-07T07:12:22;21.07;;;6.23;;
28431;SDS011;15664;51.302;7.744;2022-12-07T07:14:48;25.60;;;8.53;;
28431;SDS011;15664;51.302;7.744;2022-12-07T07:17:13;16.17;;;6.77;;
28431;SDS011;15664;51.302;7.744;2022-12-07T07:19:38;43.17;;;11.63;;
28431;SDS011;15664;51.302;7.744;2022-12-07T07:22:03;35.70;;;11.60;;
28431;SDS011;15664;51.302;7.744;2022-12-07T07:24:29;30.83;;;10.87;;
28431;SDS011;15664;51.302;7.744;2022-12-07T07:26:55;28.45;;;9.77;;
28431;SDS011;15664;51.302;7.744;2022-12-07T07:29:20;13.67;;;5.70;;
28431;SDS011;15664;51.302;7.744;2022-12-07T07:31:46;35.20;;;10.93;;
28431;SDS011;15664;51.302;7.744;2022-12-07T07:34:11;35.30;;;11.03;;
28431;SDS011;15664;51.302;7.744;2022-12-07T07:36:36;35.60;;;10.55;;
28431;SDS011;15664;51.302;7.744;2022-12-07T07:39:02;32.83;;;11.35;;
28431;SDS011;15664;51.302;7.744;2022-12-07T07:41:27;39.47;;;11.60;;
28431;SDS011;15664;51.302;7.744;2022-12-07T07:43:53;34.73;;;9.30;;
28431;SDS011;15664;51.302;7.744;2022-12-07T07:46:18;32.87;;;10.83;;
28431;SDS011;15664;51.302;7.744;2022-12-07T07:48:43;45.33;;;13.53;;
28431;SDS011;15664;51.302;7.744;2022-12-07T07:51:08;29.27;;;9.23;;
28431;SDS011;15664;51.302;7.744;2022-12-07T07:53:34;38.47;;;11.83;;
28431;SDS011;15664;51.302;7.744;2022-12-07T07:55:59;30.80;;;11.37;;
28431;SDS011;15664;51.302;7.744;2022-12-07T07:58:25;26.50;;;9.70;;
28431;SDS011;15664;51.302;7.744;2022-12-07T08:00:50;38.00;;;11.77;;
28431;SDS011;15664;51.302;7.744;2022-12-07T08:03:16;20.23;;;7.23;;
28431;SDS011;15664;51.302;7.744;2022-12-07T08:05:42;35.33;;;11.05;;
28431;SDS011;15664;51.302;7.744;2022-12-07T08:08:07;33.90;;;11.27;;
28431;SDS011;15664;51.302;7.744;2022-12-07T08:10:33;40.30;;;12.53;;
28431;SDS011;15664;51.302;7.744;2022-12-07T08:12:59;34.30;;;10.20;;
28431;SDS011;15664;51.302;7.744;2022-12-07T08:15:39;32.40;;;11.50;;
28431;SDS011;15664;51.302;7.744;2022-12-07T08:18:05;26.30;;;7.83;;
28431;SDS011;15664;51.302;7.744;2022-12-07T08:20:31;29.60;;;12.05;;
28431;SDS011;15664;51.302;7.744;2022-12-07T08:22:57;30.33;;;9.90;;
28431;SDS011;15664;51.302;7.744;2022-12-07T08:25:23;29.63;;;9.47;;
28431;SDS011;15664;51.302;7.744;2022-12-07T08:27:48;31.53;;;10.03;;
28431;SDS011;15664;51.302;7.744;2022-12-07T08:30:15;30.63;;;9.60;;
28431;SDS011;15664;51.302;7.744;2022-12-07T08:32:41;34.93;;;11.37;;
28431;SDS011;15664;51.302;7.744;2022-12-07T08:35:06;18.40;;;6.80;;
28431;SDS011;15664;51.302;7.744;2022-12-07T08:37:32;32.65;;;10.27;;
28431;SDS011;15664;51.302;7.744;2022-12-07T08:39:57;21.47;;;7.57;;
28431;SDS011;15664;51.302;7.744;2022-12-07T08:42:23;18.87;;;7.43;;
28431;SDS011;15664;51.302;7.744;2022-12-07T08:44:52;22.67;;;8.35;;
28431;SDS011;15664;51.302;7.744;2022-12-07T08:47:18;31.25;;;11.90;;
28431;SDS011;15664;51.302;7.744;2022-12-07T08:49:44;29.23;;;9.57;;
28431;SDS011;15664;51.302;7.744;2022-12-07T08:52:14;17.77;;;6.40;;
28431;SDS011;15664;51.302;7.744;2022-12-07T08:54:40;28.35;;;8.75;;
28431;SDS011;15664;51.302;7.744;2022-12-07T08:57:06;26.88;;;9.80;;
28431;SDS011;15664;51.302;7.744;2022-12-07T08:59:33;23.80;;;8.20;;
28431;SDS011;15664;51.302;7.744;2022-12-07T09:02:00;26.48;;;8.02;;
28431;SDS011;15664;51.302;7.744;2022-12-07T09:04:26;23.37;;;7.00;;
28431;SDS011;15664;51.302;7.744;2022-12-07T09:06:51;19.33;;;6.55;;
28431;SDS011;15664;51.302;7.744;2022-12-07T09:09:18;24.58;;;8.20;;
28431;SDS011;15664;51.302;7.744;2022-12-07T09:11:44;21.48;;;7.40;;
28431;SDS011;15664;51.302;7.744;2022-12-07T09:14:10;21.25;;;7.75;;
28431;SDS011;15664;51.302;7.744;2022-12-07T09:16:35;20.40;;;6.65;;
28431;SDS011;15664;51.302;7.744;2022-12-07T09:19:01;18.73;;;7.07;;
28431;SDS011;15664;51.302;7.744;2022-12-07T09:21:26;21.07;;;6.67;;
28431;SDS011;15664;51.302;7.744;2022-12-07T09:23:51;25.43;;;7.43;;
28431;SDS011;15664;51.302;7.744;2022-12-07T09:26:17;21.03;;;6.53;;
28431;SDS011;15664;51.302;7.744;2022-12-07T09:28:42;25.50;;;8.07;;
28431;SDS011;15664;51.302;7.744;2022-12-07T09:31:07;23.30;;;7.47;;
28431;SDS011;15664;51.302;7.744;2022-12-07T09:33:32;18.97;;;6.87;;
28431;SDS011;15664;51.302;7.744;2022-12-07T09:35:58;22.80;;;7.53;;
28431;SDS011;15664;51.302;7.744;2022-12-07T09:38:23;21.50;;;7.53;;
28431;SDS011;15664;51.302;7.744;2022-12-07T09:40:51;23.98;;;8.40;;
28431;SDS011;15664;51.302;7.744;2022-12-07T09:43:19;20.90;;;8.27;;
28431;SDS011;15664;51.302;7.744;2022-12-07T09:45:47;18.88;;;6.90;;
28431;SDS011;15664;51.302;7.744;2022-12-07T09:48:19;18.58;;;6.93;;
28431;SDS011;15664;51.302;7.744;2022-12-07T09:50:47;20.63;;;7.50;;
28431;SDS011;15664;51.302;7.744;2022-12-07T09:53:24;21.45;;;7.47;;
28431;SDS011;15664;51.302;7.744;2022-12-07T09:55:53;23.00;;;7.80;;
28431;SDS011;15664;51.302;7.744;2022-12-07T09:58:20;22.25;;;7.55;;
28431;SDS011;15664;51.302;7.744;2022-12-07T10:00:50;29.25;;;8.32;;
28431;SDS011;15664;51.302;7.744;2022-12-07T10:03:18;17.47;;;6.13;;
28431;SDS011;15664;51.302;7.744;2022-12-07T10:05:47;13.57;;;6.13;;
28431;SDS011;15664;51.302;7.744;2022-12-07T10:08:15;20.83;;;7.45;;
28431;SDS011;15664;51.302;7.744;2022-12-07T10:10:42;22.20;;;7.28;;
28431;SDS011;15664;51.302;7.744;2022-12-07T10:13:12;26.55;;;10.05;;
28431;SDS011;15664;51.302;7.744;2022-12-07T10:15:58;24.48;;;9.68;;
28431;SDS011;15664;51.302;7.744;2022-12-07T10:18:33;31.27;;;10.33;;
28431;SDS011;15664;51.302;7.744;2022-12-07T10:23:28;16.50;;;6.30;;
28431;SDS011;15664;51.302;7.744;2022-12-07T10:25:53;26.77;;;10.57;;
28431;SDS011;15664;51.302;7.744;2022-12-07T10:28:20;27.58;;;9.23;;
28431;SDS011;15664;51.302;7.744;2022-12-07T10:30:51;26.75;;;7.95;;
28431;SDS011;15664;51.302;7.744;2022-12-07T10:33:27;28.45;;;12.25;;
28431;SDS011;15664;51.302;7.744;2022-12-07T10:35:53;31.30;;;10.90;;
28431;SDS011;15664;51.302;7.744;2022-12-07T10:38:19;33.90;;;12.63;;
28431;SDS011;15664;51.302;7.744;2022-12-07T10:40:44;22.50;;;8.43;;
28431;SDS011;15664;51.302;7.744;2022-12-07T10:48:27;33.20;;;11.97;;
28431;SDS011;15664;51.302;7.744;2022-12-07T10:53:43;23.15;;;7.95;;
28431;SDS011;15664;51.302;7.744;2022-12-07T10:56:37;29.08;;;9.95;;
28431;SDS011;15664;51.302;7.744;2022-12-07T11:05:14;25.33;;;8.27;;
28431;SDS011;15664;51.302;7.744;2022-12-07T11:08:05;22.42;;;7.10;;
28431;SDS011;15664;51.302;7.744;2022-12-07T11:21:34;14.63;;;5.78;;
28431;SDS011;15664;51.302;7.744;2022-12-07T11:27:01;19.65;;;6.50;;
28431;SDS011;15664;51.302;7.744;2022-12-07T11:29:49;16.97;;;6.43;;
28431;SDS011;15664;51.302;7.744;2022-12-07T11:38:17;19.05;;;7.38;;
28431;SDS011;15664;51.302;7.744;2022-12-07T11:40:48;12.50;;;4.93;;
28431;SDS011;15664;51.302;7.744;2022-12-07T11:45:55;9.85;;;4.05;;
28431;SDS011;15664;51.302;7.744;2022-12-07T11:48:28;16.52;;;5.13;;
28431;SDS011;15664;51.302;7.744;2022-12-07T11:50:59;16.70;;;5.97;;
28431;SDS011;15664;51.302;7.744;2022-12-07T11:53:49;19.92;;;5.70;;
28431;SDS011;15664;51.302;7.744;2022-12-07T11:56:16;9.80;;;4.07;;
28431;SDS011;15664;51.302;7.744;2022-12-07T12:06:39;16.73;;;6.22;;
28431;SDS011;15664;51.302;7.744;2022-12-07T12:20:07;13.70;;;4.53;;
28431;SDS011;15664;51.302;7.744;2022-12-07T12:22:42;6.00;;;2.60;;
28431;SDS011;15664;51.302;7.744;2022-12-07T12:25:18;12.68;;;5.45;;
28431;SDS011;15664;51.302;7.744;2022-12-07T12:27:46;9.00;;;4.05;;
28431;SDS011;15664;51.302;7.744;2022-12-07T12:33:01;13.73;;;4.85;;
28431;SDS011;15664;51.302;7.744;2022-12-07T12:35:35;13.40;;;4.70;;
28431;SDS011;15664;51.302;7.744;2022-12-07T12:38:25;15.05;;;5.22;;
28431;SDS011;15664;51.302;7.744;2022-12-07T12:54:20;21.13;;;7.05;;
28431;SDS011;15664;51.302;7.744;2022-12-07T13:02:30;14.85;;;5.18;;
28431;SDS011;15664;51.302;7.744;2022-12-07T13:15:36;16.95;;;7.43;;
28431;SDS011;15664;51.302;7.744;2022-12-07T13:18:21;19.27;;;6.80;;
28431;SDS011;15664;51.302;7.744;2022-12-07T13:26:14;20.50;;;7.60;;
28431;SDS011;15664;51.302;7.744;2022-12-07T13:31:39;13.57;;;5.87;;
28431;SDS011;15664;51.302;7.744;2022-12-07T13:36:58;17.85;;;7.28;;
28431;SDS011;15664;51.302;7.744;2022-12-07T13:39:54;15.70;;;6.07;;
28431;SDS011;15664;51.302;7.744;2022-12-07T13:42:30;17.30;;;7.50;;
28431;SDS011;15664;51.302;7.744;2022-12-07T13:44:58;23.43;;;9.37;;
28431;SDS011;15664;51.302;7.744;2022-12-07T13:49:59;24.08;;;8.73;;
28431;SDS011;15664;51.302;7.744;2022-12-07T13:52:25;32.50;;;12.50;;
28431;SDS011;15664;51.302;7.744;2022-12-07T13:55:00;22.08;;;8.00;;
28431;SDS011;15664;51.302;7.744;2022-12-07T13:57:37;22.08;;;7.93;;
28431;SDS011;15664;51.302;7.744;2022-12-07T14:00:04;20.90;;;7.23;;
28431;SDS011;15664;51.302;7.744;2022-12-07T14:02:32;18.67;;;7.72;;
28431;SDS011;15664;51.302;7.744;2022-12-07T14:05:08;20.73;;;7.75;;
28431;SDS011;15664;51.302;7.744;2022-12-07T14:07:35;24.57;;;8.33;;
28431;SDS011;15664;51.302;7.744;2022-12-07T14:10:04;19.15;;;8.73;;
28431;SDS011;15664;51.302;7.744;2022-12-07T14:12:32;30.23;;;9.60;;
28431;SDS011;15664;51.302;7.744;2022-12-07T14:15:02;26.35;;;8.75;;
28431;SDS011;15664;51.302;7.744;2022-12-07T14:17:28;27.42;;;10.13;;
28431;SDS011;15664;51.302;7.744;2022-12-07T14:19:56;28.43;;;11.40;;
28431;SDS011;15664;51.302;7.744;2022-12-07T14:24:58;20.98;;;8.80;;
28431;SDS011;15664;51.302;7.744;2022-12-07T14:27:30;25.42;;;10.43;;
28431;SDS011;15664;51.302;7.744;2022-12-07T14:29:59;25.05;;;11.02;;
28431;SDS011;15664;51.302;7.744;2022-12-07T14:32:26;29.83;;;11.18;;
28431;SDS011;15664;51.302;7.744;2022-12-07T14:34:58;23.80;;;9.87;;
28431;SDS011;15664;51.302;7.744;2022-12-07T14:37:33;26.20;;;9.88;;
28431;SDS011;15664;51.302;7.744;2022-12-07T14:39:58;23.00;;;9.87;;
28431;SDS011;15664;51.302;7.744;2022-12-07T14:42:24;22.07;;;8.10;;
28431;SDS011;15664;51.302;7.744;2022-12-07T14:44:53;18.17;;;6.70;;
28431;SDS011;15664;51.302;7.744;2022-12-07T14:47:18;19.10;;;7.70;;
28431;SDS011;15664;51.302;7.744;2022-12-07T14:49:44;17.33;;;7.20;;
28431;SDS011;15664;51.302;7.744;2022-12-07T14:52:27;32.37;;;9.87;;
28431;SDS011;15664;51.302;7.744;2022-12-07T14:54:55;23.98;;;7.97;;
28431;SDS011;15664;51.302;7.744;2022-12-07T14:57:20;23.58;;;8.10;;
28431;SDS011;15664;51.302;7.744;2022-12-07T14:59:46;23.17;;;8.40;;
28431;SDS011;15664;51.302;7.744;2022-12-07T15:02:12;29.97;;;9.30;;
28431;SDS011;15664;51.302;7.744;2022-12-07T15:04:39;19.92;;;8.50;;
28431;SDS011;15664;51.302;7.744;2022-12-07T15:07:05;24.90;;;8.27;;
28431;SDS011;15664;51.302;7.744;2022-12-07T15:09:35;17.70;;;7.47;;
28431;SDS011;15664;51.302;7.744;2022-12-07T15:12:00;23.13;;;9.00;;
28431;SDS011;15664;51.302;7.744;2022-12-07T15:14:25;23.30;;;9.53;;
28431;SDS011;15664;51.302;7.744;2022-12-07T15:16:51;24.97;;;9.00;;
28431;SDS011;15664;51.302;7.744;2022-12-07T15:19:17;23.43;;;9.20;;
28431;SDS011;15664;51.302;7.744;2022-12-07T15:21:47;12.30;;;4.72;;
28431;SDS011;15664;51.302;7.744;2022-12-07T15:24:13;16.48;;;5.90;;
28431;SDS011;15664;51.302;7.744;2022-12-07T15:26:38;16.35;;;5.75;;
28431;SDS011;15664;51.302;7.744;2022-12-07T15:29:05;16.27;;;6.43;;
28431;SDS011;15664;51.302;7.744;2022-12-07T15:31:31;16.05;;;6.53;;
28431;SDS011;15664;51.302;7.744;2022-12-07T15:33:57;18.17;;;6.72;;
28431;SDS011;15664;51.302;7.744;2022-12-07T15:36:24;16.00;;;6.77;;
28431;SDS011;15664;51.302;7.744;2022-12-07T15:38:52;16.15;;;6.65;;
28431;SDS011;15664;51.302;7.744;2022-12-07T15:41:17;16.80;;;6.63;;
28431;SDS011;15664;51.302;7.744;2022-12-07T15:43:43;15.53;;;6.53;;
28431;SDS011;15664;51.302;7.744;2022-12-07T15:46:30;13.98;;;6.72;;
28431;SDS011;15664;51.302;7.744;2022-12-07T15:49:01;19.10;;;7.38;;
28431;SDS011;15664;51.302;7.744;2022-12-07T15:51:27;22.40;;;8.40;;
28431;SDS011;15664;51.302;7.744;2022-12-07T15:53:52;16.90;;;7.18;;
28431;SDS011;15664;51.302;7.744;2022-12-07T15:56:18;18.00;;;7.53;;
28431;SDS011;15664;51.302;7.744;2022-12-07T15:58:44;20.77;;;8.18;;
28431;SDS011;15664;51.302;7.744;2022-12-07T16:01:13;23.80;;;8.73;;
28431;SDS011;15664;51.302;7.744;2022-12-07T16:03:40;21.77;;;8.40;;
28431;SDS011;15664;51.302;7.744;2022-12-07T16:06:05;27.30;;;11.80;;
28431;SDS011;15664;51.302;7.744;2022-12-07T16:08:31;23.63;;;9.52;;
28431;SDS011;15664;51.302;7.744;2022-12-07T16:10:57;24.57;;;9.23;;
28431;SDS011;15664;51.302;7.744;2022-12-07T16:13:22;32.50;;;10.10;;
28431;SDS011;15664;51.302;7.744;2022-12-07T16:15:47;27.20;;;9.90;;
28431;SDS011;15664;51.302;7.744;2022-12-07T16:18:13;22.57;;;9.83;;
28431;SDS011;15664;51.302;7.744;2022-12-07T16:20:38;29.47;;;12.23;;
28431;SDS011;15664;51.302;7.744;2022-12-07T16:23:04;35.30;;;12.75;;
28431;SDS011;15664;51.302;7.744;2022-12-07T16:25:30;32.80;;;11.65;;
28431;SDS011;15664;51.302;7.744;2022-12-07T16:27:55;35.53;;;12.97;;
28431;SDS011;15664;51.302;7.744;2022-12-07T16:30:20;36.10;;;12.17;;
28431;SDS011;15664;51.302;7.744;2022-12-07T16:32:46;26.20;;;10.13;;
28431;SDS011;15664;51.302;7.744;2022-12-07T16:35:11;24.63;;;7.03;;
28431;SDS011;15664;51.302;7.744;2022-12-07T16:37:38;32.47;;;13.00;;
28431;SDS011;15664;51.302;7.744;2022-12-07T16:40:04;34.27;;;12.73;;
28431;SDS011;15664;51.302;7.744;2022-12-07T16:42:33;27.92;;;9.63;;
28431;SDS011;15664;51.302;7.744;2022-12-07T16:44:59;33.42;;;10.63;;
28431;SDS011;15664;51.302;7.744;2022-12-07T16:47:25;36.08;;;12.65;;
28431;SDS011;15664;51.302;7.744;2022-12-07T16:49:50;41.67;;;14.70;;
28431;SDS011;15664;51.302;7.744;2022-12-07T16:52:17;20.20;;;8.43;;
28431;SDS011;15664;51.302;7.744;2022-12-07T16:54:43;31.23;;;11.70;;
28431;SDS011;15664;51.302;7.744;2022-12-07T16:57:08;29.98;;;11.20;;
28431;SDS011;15664;51.302;7.744;2022-12-07T16:59:33;24.67;;;9.00;;